Time;durP1;ratioP1;P1;durP2;ratioP2;P2;SDS_P1;SDS_P2;PMS_P1;PMS_P2;Temp;Humidity;BMP_temperature;BMP_pressure;BME280_temperature;BME280_humidity;BME280_pressure;Samples;Min_cycle;Max_cycle;Signal;HPM_P1;HPM_P2
2023/09/09 00:01:39;;;;;;;19.92;18.02;;;;;;;17.67;100.00;101379.31;5014081;28;20461;-75
2023/09/09 00:04:08;;;;;;;19.17;17.27;;;;;;;17.69;100.00;101381.81;5007856;28;20027;-75
2023/09/09 00:06:34;;;;;;;19.95;17.88;;;;;;;17.64;100.00;101379.78;5005318;28;20029;-75
2023/09/09 00:09:00;;;;;;;19.20;17.30;;;;;;;17.66;100.00;101387.72;5010914;28;20030;-75
2023/09/09 00:11:25;;;;;;;19.08;17.27;;;;;;;17.66;100.00;101382.28;5007518;28;20034;-75
2023/09/09 00:13:51;;;;;;;19.92;17.92;;;;;;;17.61;100.00;101384.84;5006703;28;20037;-75
2023/09/09 00:16:17;;;;;;;17.45;15.65;;;;;;;17.57;100.00;101384.50;5012005;28;20041;-75
2023/09/09 00:18:42;;;;;;;21.15;17.50;;;;;;;17.53;100.00;101384.13;5013749;28;20038;-75
2023/09/09 00:21:07;;;;;;;19.17;17.23;;;;;;;17.54;100.00;101379.50;5014786;28;20432;-75
2023/09/09 00:23:33;;;;;;;19.92;17.83;;;;;;;17.53;100.00;101373.25;5009898;28;20030;-76
2023/09/09 00:25:58;;;;;;;19.83;17.80;;;;;;;17.50;100.00;101376.41;5003221;28;20463;-75
2023/09/09 00:28:23;;;;;;;20.42;17.52;;;;;;;17.48;100.00;101381.25;5011832;28;20049;-75
2023/09/09 00:30:49;;;;;;;20.33;18.10;;;;;;;17.45;100.00;101372.72;5012450;28;20026;-75
2023/09/09 00:33:15;;;;;;;18.75;16.52;;;;;;;17.45;100.00;101365.38;5012384;28;20480;-75
2023/09/09 00:35:40;;;;;;;19.83;17.73;;;;;;;17.43;100.00;101368.34;5010563;28;20034;-75
2023/09/09 00:38:10;;;;;;;20.98;17.35;;;;;;;17.41;100.00;101365.03;5013396;28;20022;-75
2023/09/09 00:40:36;;;;;;;18.77;16.85;;;;;;;17.39;100.00;101369.88;5000478;28;20034;-75
2023/09/09 00:43:04;;;;;;;18.70;16.80;;;;;;;17.39;100.00;101361.69;5009169;28;20049;-75
2023/09/09 00:45:29;;;;;;;19.88;17.60;;;;;;;17.39;100.00;101366.28;5010048;28;20045;-76
2023/09/09 00:47:55;;;;;;;19.98;17.90;;;;;;;17.39;100.00;101363.56;4992821;28;20026;-73
2023/09/09 00:50:21;;;;;;;21.15;18.95;;;;;;;17.40;100.00;101368.81;4987548;28;20034;-74
2023/09/09 00:52:47;;;;;;;22.67;20.25;;;;;;;17.52;100.00;101368.00;4990981;28;20088;-73
2023/09/09 00:55:15;;;;;;;22.98;20.58;;;;;;;17.47;100.00;101357.00;5011913;28;20158;-74
2023/09/09 00:57:41;;;;;;;21.30;19.10;;;;;;;17.38;100.00;101365.47;5001240;28;20497;-74
2023/09/09 01:00:09;;;;;;;22.83;20.42;;;;;;;17.32;100.00;101366.38;5005752;28;20038;-74
2023/09/09 01:02:41;;;;;;;22.30;20.10;;;;;;;17.33;100.00;101367.22;5012764;28;20085;-74
2023/09/09 01:05:07;;;;;;;22.90;20.50;;;;;;;17.30;100.00;101360.34;4992846;28;20038;-74
2023/09/09 01:07:48;;;;;;;22.23;19.23;;;;;;;17.27;100.00;101371.72;5011130;28;20036;-74
2023/09/09 01:10:17;;;;;;;23.48;20.35;;;;;;;17.24;100.00;101369.44;5004482;28;20073;-74
2023/09/09 01:12:43;;;;;;;24.40;20.50;;;;;;;17.22;100.00;101366.94;5011231;28;20037;-75
2023/09/09 01:15:10;;;;;;;22.90;20.50;;;;;;;17.20;100.00;101368.22;5018245;28;20029;-74
2023/09/09 01:17:36;;;;;;;21.95;19.55;;;;;;;17.17;100.00;101368.69;5008123;28;20034;-74
2023/09/09 01:20:14;;;;;;;24.73;22.02;;;;;;;17.15;100.00;101371.66;4993870;28;20037;-74
2023/09/09 01:22:40;;;;;;;22.95;20.55;;;;;;;17.09;100.00;101367.94;5014805;28;20038;-74
2023/09/09 01:25:06;;;;;;;24.50;21.90;;;;;;;17.09;100.00;101370.66;4981631;28;20061;-74
2023/09/09 01:27:32;;;;;;;22.83;20.52;;;;;;;17.05;100.00;101366.75;5010713;28;20528;-74
2023/09/09 01:29:58;;;;;;;25.92;21.70;;;;;;;17.01;100.00;101367.44;5013251;28;20037;-74
2023/09/09 01:32:23;;;;;;;23.73;21.33;;;;;;;16.97;100.00;101370.59;5011410;28;20034;-74
2023/09/09 01:34:50;;;;;;;25.98;23.17;;;;;;;16.97;100.00;101369.75;5009910;28;20421;-74
2023/09/09 01:37:16;;;;;;;24.55;21.92;;;;;;;16.96;100.00;101368.09;5011252;28;20029;-74
2023/09/09 01:39:41;;;;;;;25.95;23.25;;;;;;;16.99;100.00;101366.81;5011347;28;20037;-74
2023/09/09 01:42:06;;;;;;;25.58;22.77;;;;;;;16.99;100.00;101362.19;5011115;28;20029;-74
2023/09/09 01:44:32;;;;;;;23.42;20.95;;;;;;;16.97;100.00;101361.59;5011526;28;20038;-74
2023/09/09 01:47:00;;;;;;;25.45;22.73;;;;;;;16.97;100.00;101367.03;5005349;28;20142;-75
2023/09/09 01:49:31;;;;;;;27.85;23.20;;;;;;;16.94;100.00;101365.56;5009524;28;20029;-75
2023/09/09 01:51:56;;;;;;;26.80;22.20;;;;;;;16.91;100.00;101367.94;5012157;28;20034;-74
2023/09/09 01:54:22;;;;;;;24.92;22.33;;;;;;;16.86;100.00;101363.16;5012571;28;20076;-75
2023/09/09 01:56:47;;;;;;;27.15;23.95;;;;;;;16.82;100.00;101362.78;5010145;28;20052;-75
2023/09/09 01:59:13;;;;;;;24.20;21.65;;;;;;;16.82;100.00;101364.69;5011093;28;20046;-75
2023/09/09 02:01:38;;;;;;;24.92;21.83;;;;;;;16.80;100.00;101359.44;5009592;28;20026;-75
2023/09/09 02:04:03;;;;;;;28.55;25.55;;;;;;;16.80;100.00;101358.63;5009537;28;20033;-75
2023/09/09 02:06:29;;;;;;;26.95;24.08;;;;;;;16.75;100.00;101366.63;5002455;28;20080;-75
2023/09/09 02:08:55;;;;;;;27.83;23.63;;;;;;;16.71;100.00;101360.81;5011512;28;20034;-75
2023/09/09 02:11:20;;;;;;;28.67;25.58;;;;;;;16.76;100.00;101365.56;5019273;28;20052;-74
2023/09/09 02:13:45;;;;;;;27.10;24.15;;;;;;;16.70;100.00;101361.03;5022530;28;20029;-74
2023/09/09 02:16:11;;;;;;;27.38;24.35;;;;;;;16.66;100.00;101363.38;5011349;28;20033;-73
2023/09/09 02:18:39;;;;;;;26.90;24.10;;;;;;;16.60;100.00;101367.81;5012551;28;20048;-73
2023/09/09 02:21:06;;;;;;;30.35;27.00;;;;;;;16.62;100.00;101363.00;4991801;28;20029;-73
2023/09/09 02:23:31;;;;;;;27.38;24.48;;;;;;;16.61;100.00;101364.06;5004711;28;20030;-74
2023/09/09 02:25:57;;;;;;;30.92;25.20;;;;;;;16.58;100.00;101366.41;5001142;28;20033;-73
2023/09/09 02:28:23;;;;;;;28.83;25.42;;;;;;;16.51;100.00;101366.44;5011608;28;20018;-74
2023/09/09 02:30:48;;;;;;;27.30;24.45;;;;;;;16.47;100.00;101366.06;4985885;28;20030;-74
2023/09/09 02:33:14;;;;;;;29.35;26.25;;;;;;;16.43;100.00;101358.59;5011469;28;20072;-74
2023/09/09 02:35:43;;;;;;;28.30;25.13;;;;;;;16.40;100.00;101359.03;5012300;28;20030;-74
2023/09/09 02:38:08;;;;;;;29.45;26.25;;;;;;;16.35;100.00;101362.44;5019823;28;20090;-74
2023/09/09 02:40:33;;;;;;;31.20;27.90;;;;;;;16.41;100.00;101361.53;5025456;28;20022;-74
2023/09/09 02:42:59;;;;;;;30.98;27.30;;;;;;;16.37;100.00;101360.31;4993940;28;20024;-74
2023/09/09 02:45:24;;;;;;;30.80;27.45;;;;;;;16.37;100.00;101358.41;5011167;28;20493;-74
2023/09/09 02:47:49;;;;;;;30.40;27.10;;;;;;;16.38;100.00;101359.28;4993417;28;20459;-74
2023/09/09 02:50:15;;;;;;;30.60;27.40;;;;;;;16.34;100.00;101364.28;5010257;28;20033;-74
2023/09/09 02:52:40;;;;;;;33.17;29.55;;;;;;;16.35;100.00;101362.44;5010992;28;20470;-74
2023/09/09 02:55:06;;;;;;;32.78;28.98;;;;;;;16.29;100.00;101357.88;5010565;28;20026;-74
2023/09/09 02:57:33;;;;;;;32.53;26.85;;;;;;;16.27;100.00;101359.97;5009489;28;20048;-74
2023/09/09 02:59:58;;;;;;;28.75;25.75;;;;;;;16.24;100.00;101353.13;5009696;28;20034;-74
2023/09/09 03:02:24;;;;;;;31.65;28.25;;;;;;;16.19;100.00;101358.38;5008851;28;20486;-74
2023/09/09 03:04:49;;;;;;;29.10;26.10;;;;;;;16.16;100.00;101361.53;5009824;28;20045;-74
2023/09/09 03:07:15;;;;;;;30.85;27.52;;;;;;;16.10;100.00;101363.25;5010541;28;20087;-74
2023/09/09 03:09:40;;;;;;;30.30;27.00;;;;;;;16.03;100.00;101357.88;5010295;28;20049;-74
2023/09/09 03:12:06;;;;;;;29.33;26.33;;;;;;;15.98;100.00;101357.69;5008830;28;20118;-74
2023/09/09 03:14:32;;;;;;;28.75;25.65;;;;;;;15.95;100.00;101357.31;5009778;28;20044;-74
2023/09/09 03:16:58;;;;;;;30.70;24.65;;;;;;;15.93;100.00;101352.13;5009794;28;20022;-74
2023/09/09 03:19:25;;;;;;;33.67;27.73;;;;;;;15.90;100.00;101356.09;5008435;28;20026;-72
2023/09/09 03:21:50;;;;;;;30.60;26.75;;;;;;;15.90;100.00;101355.28;5009621;28;20147;-74
2023/09/09 03:24:16;;;;;;;26.65;23.75;;;;;;;15.86;100.00;101360.31;5008952;28;20471;-74
2023/09/09 03:26:41;;;;;;;28.90;25.52;;;;;;;15.81;100.00;101362.81;5007009;28;20040;-74
2023/09/09 03:29:07;;;;;;;28.60;25.52;;;;;;;15.76;100.00;101357.22;4998921;28;20068;-74
2023/09/09 03:31:33;;;;;;;29.23;26.08;;;;;;;15.71;100.00;101352.44;5007879;28;20025;-74
2023/09/09 03:33:59;;;;;;;28.55;25.55;;;;;;;15.70;100.00;101363.53;5008551;28;20116;-74
2023/09/09 03:36:24;;;;;;;37.08;30.05;;;;;;;15.68;100.00;101357.50;5010016;28;20025;-74
2023/09/09 03:38:50;;;;;;;31.27;27.98;;;;;;;15.67;100.00;101362.06;5007659;28;20053;-73
2023/09/09 03:41:15;;;;;;;31.23;26.50;;;;;;;15.68;100.00;101363.72;5003970;28;20040;-74
2023/09/09 03:43:40;;;;;;;34.92;28.38;;;;;;;15.65;100.00;101366.06;5010697;28;20037;-74
2023/09/09 03:46:06;;;;;;;32.97;29.02;;;;;;;15.63;100.00;101360.00;5009309;28;20030;-73
2023/09/09 03:48:31;;;;;;;32.78;28.10;;;;;;;15.61;100.00;101369.22;5015924;28;20044;-74
2023/09/09 03:50:58;;;;;;;32.55;27.80;;;;;;;15.60;100.00;101367.53;5018164;28;20528;-74
2023/09/09 03:53:23;;;;;;;29.08;26.08;;;;;;;15.57;100.00;101370.69;5014942;28;20037;-74
2023/09/09 03:55:48;;;;;;;32.85;29.42;;;;;;;15.53;100.00;101369.44;5013510;28;20083;-74
2023/09/09 03:58:14;;;;;;;33.22;29.63;;;;;;;15.49;100.00;101370.97;5011709;28;20030;-74
2023/09/09 04:00:39;;;;;;;33.53;29.92;;;;;;;15.49;100.00;101373.66;5008710;28;20045;-73
2023/09/09 04:03:05;;;;;;;34.45;29.23;;;;;;;15.49;100.00;101370.97;5015093;28;20022;-74
2023/09/09 04:05:30;;;;;;;32.97;28.98;;;;;;;15.48;100.00;101380.16;5013403;28;20394;-74
2023/09/09 04:08:03;;;;;;;34.85;30.90;;;;;;;15.46;100.00;101376.81;5006037;28;20458;-74
2023/09/09 04:10:28;;;;;;;30.45;27.17;;;;;;;15.43;100.00;101378.09;5014939;28;20527;-73
2023/09/09 04:13:02;;;;;;;31.13;26.98;;;;;;;15.42;100.00;101373.72;5016683;28;20462;-74
2023/09/09 04:15:31;;;;;;;36.80;30.58;;;;;;;15.41;100.00;101373.91;5016599;28;20034;-74
2023/09/09 04:17:56;;;;;;;31.48;27.10;;;;;;;15.40;100.00;101373.09;5017094;28;20087;-74
2023/09/09 04:20:21;;;;;;;29.85;26.55;;;;;;;15.38;100.00;101374.34;5015125;28;20030;-74
2023/09/09 04:22:47;;;;;;;35.45;29.63;;;;;;;15.36;100.00;101380.00;5015543;28;20120;-74
2023/09/09 04:25:12;;;;;;;30.60;27.17;;;;;;;15.36;100.00;101374.56;5011110;28;20482;-74
2023/09/09 04:27:38;;;;;;;34.78;29.10;;;;;;;15.39;100.00;101374.13;5013470;28;20030;-74
2023/09/09 04:30:03;;;;;;;32.67;28.60;;;;;;;15.40;100.00;101377.66;5007137;28;20506;-74
2023/09/09 04:32:31;;;;;;;32.13;27.73;;;;;;;15.38;100.00;101374.34;5014323;28;20030;-74
2023/09/09 04:34:57;;;;;;;33.17;29.08;;;;;;;15.36;100.00;101371.00;5014956;28;20091;-74
2023/09/09 04:37:24;;;;;;;31.13;27.88;;;;;;;15.34;100.00;101367.69;5015259;28;20018;-74
2023/09/09 04:39:50;;;;;;;30.05;25.80;;;;;;;15.31;100.00;101368.94;5013495;28;20032;-74
2023/09/09 04:42:16;;;;;;;31.90;27.10;;;;;;;15.31;100.00;101368.94;5005105;28;20030;-73
2023/09/09 04:44:42;;;;;;;29.48;25.92;;;;;;;15.28;100.00;101370.22;5011522;28;20160;-74
2023/09/09 04:47:07;;;;;;;29.30;26.13;;;;;;;15.29;100.00;101371.03;5012930;28;20022;-74
2023/09/09 04:49:33;;;;;;;27.42;24.48;;;;;;;15.29;100.00;101369.16;5008338;28;20050;-74
2023/09/09 04:51:59;;;;;;;26.08;23.25;;;;;;;15.29;100.00;101371.88;5011389;28;20438;-76
2023/09/09 04:54:25;;;;;;;29.98;26.25;;;;;;;15.30;100.00;101367.28;5010518;28;20511;-76
2023/09/09 04:56:50;;;;;;;27.30;24.10;;;;;;;15.33;100.00;101366.03;5005928;28;20042;-75
2023/09/09 04:59:15;;;;;;;27.63;24.50;;;;;;;15.36;100.00;101369.13;5011440;28;20046;-76
2023/09/09 05:01:41;;;;;;;27.38;24.45;;;;;;;15.41;100.00;101374.75;5012401;28;20018;-76
2023/09/09 05:04:09;;;;;;;33.03;29.00;;;;;;;15.44;100.00;101377.00;5012733;28;20072;-76
2023/09/09 05:06:35;;;;;;;29.20;25.67;;;;;;;15.45;100.00;101370.53;5010429;28;20075;-76
2023/09/09 05:09:00;;;;;;;30.05;25.58;;;;;;;15.46;100.00;101372.19;5016101;28;20052;-76
2023/09/09 05:11:26;;;;;;;31.60;26.42;;;;;;;15.51;100.00;101377.00;5012939;28;20398;-76
2023/09/09 05:13:51;;;;;;;27.40;24.48;;;;;;;15.55;100.00;101378.22;5009976;28;20080;-75
2023/09/09 05:16:16;;;;;;;27.65;23.58;;;;;;;15.62;100.00;101378.16;5015263;28;20026;-75
2023/09/09 05:18:43;;;;;;;27.75;24.80;;;;;;;15.66;100.00;101375.88;5032468;28;20089;-76
2023/09/09 05:21:08;;;;;;;29.30;25.17;;;;;;;15.72;100.00;101381.25;5016507;28;20030;-77
2023/09/09 05:23:35;;;;;;;28.48;25.35;;;;;;;15.76;100.00;101387.91;5013137;28;20029;-77
2023/09/09 05:26:01;;;;;;;28.40;24.05;;;;;;;15.83;100.00;101377.00;5010189;28;20450;-77
2023/09/09 05:28:26;;;;;;;27.15;24.25;;;;;;;15.88;100.00;101379.09;5010220;28;20029;-78
2023/09/09 05:30:51;;;;;;;28.10;24.42;;;;;;;15.95;100.00;101382.59;5012240;28;20026;-76
2023/09/09 05:33:26;;;;;;;26.17;23.20;;;;;;;16.03;100.00;101376.88;5011973;28;20466;-78
2023/09/09 05:35:53;;;;;;;26.90;23.23;;;;;;;16.13;100.00;101391.88;5012641;28;20029;-79
2023/09/09 05:38:18;;;;;;;24.45;21.85;;;;;;;16.23;100.00;101386.75;5012617;28;20022;-78
2023/09/09 05:40:43;;;;;;;24.73;22.13;;;;;;;16.34;100.00;101385.22;5011196;28;20379;-79
2023/09/09 05:43:09;;;;;;;24.33;21.10;;;;;;;16.46;100.00;101383.41;5011886;28;20026;-76
2023/09/09 05:45:37;;;;;;;22.98;20.55;;;;;;;16.60;100.00;101391.44;5005349;28;20056;-79
2023/09/09 05:48:03;;;;;;;23.63;21.13;;;;;;;16.72;100.00;101383.38;5005112;28;20137;-76
2023/09/09 05:50:30;;;;;;;23.17;20.65;;;;;;;16.84;100.00;101389.75;5011794;28;20386;-74
2023/09/09 05:52:55;;;;;;;22.23;19.95;;;;;;;17.02;100.00;101388.94;5008565;28;20030;-75
2023/09/09 05:55:21;;;;;;;20.63;18.58;;;;;;;17.31;100.00;101391.94;5007035;28;20044;-80
2023/09/09 05:57:46;;;;;;;21.95;19.30;;;;;;;17.46;100.00;101393.44;5007430;28;20027;-75
2023/09/09 06:00:12;;;;;;;21.10;18.85;;;;;;;17.60;100.00;101399.53;5010556;28;20482;-75
2023/09/09 06:02:38;;;;;;;22.13;18.63;;;;;;;18.15;99.07;101395.81;4986899;28;20064;-75
2023/09/09 06:05:05;;;;;;;19.67;17.25;;;;;;;19.17;92.82;101410.16;5006240;28;20092;-75
2023/09/09 06:07:30;;;;;;;18.88;16.83;;;;;;;20.14;86.30;101410.31;5007453;28;20041;-75
2023/09/09 06:09:56;;;;;;;19.40;16.70;;;;;;;20.89;81.72;101414.75;5009601;28;20467;-76
2023/09/09 06:12:21;;;;;;;17.88;15.98;;;;;;;21.87;76.27;101407.72;5008030;28;20047;-77
2023/09/09 06:14:47;;;;;;;17.08;15.27;;;;;;;22.70;72.21;101411.91;5009188;28;20378;-76
2023/09/09 06:17:13;;;;;;;17.83;14.98;;;;;;;23.46;68.14;101415.31;5009522;28;20420;-76
2023/09/09 06:19:38;;;;;;;18.80;14.60;;;;;;;24.04;65.44;101419.81;5010450;28;20347;-76
2023/09/09 06:22:03;;;;;;;19.05;14.50;;;;;;;24.59;63.13;101421.97;5007804;28;20030;-76
2023/09/09 06:24:29;;;;;;;15.15;13.65;;;;;;;25.09;60.93;101432.31;5008139;28;20029;-76
2023/09/09 06:26:54;;;;;;;18.48;14.18;;;;;;;25.39;59.65;101422.28;5007950;28;20394;-76
2023/09/09 06:29:21;;;;;;;17.77;13.23;;;;;;;25.79;58.31;101419.59;5003849;28;20470;-77
2023/09/09 06:31:46;;;;;;;14.35;12.95;;;;;;;26.27;56.42;101421.72;5004052;28;20458;-77
2023/09/09 06:34:12;;;;;;;16.95;13.30;;;;;;;26.71;55.05;101422.69;5012243;28;20029;-76
2023/09/09 06:36:37;;;;;;;15.35;12.85;;;;;;;27.13;54.04;101431.34;5000711;28;20506;-77
2023/09/09 06:39:03;;;;;;;16.15;14.45;;;;;;;27.43;52.33;101432.03;5001481;28;20037;-78
2023/09/09 06:41:28;;;;;;;14.02;12.57;;;;;;;28.04;50.57;101432.28;5009445;28;20032;-77
2023/09/09 06:43:54;;;;;;;14.30;11.95;;;;;;;27.66;52.17;101422.91;5011125;28;20040;-76
2023/09/09 06:46:19;;;;;;;17.15;13.15;;;;;;;28.10;51.11;101436.63;5006326;28;20040;-77
2023/09/09 06:48:50;;;;;;;14.85;11.88;;;;;;;28.59;50.06;101437.97;5007325;28;20014;-76
2023/09/09 06:51:16;;;;;;;13.80;12.45;;;;;;;28.79;49.19;101446.25;5007814;28;20455;-75
2023/09/09 06:53:41;;;;;;;14.82;12.30;;;;;;;29.79;45.87;101445.50;5004478;28;20032;-75
2023/09/09 06:56:07;;;;;;;15.00;12.27;;;;;;;30.00;45.23;101445.06;5010408;28;20041;-75
2023/09/09 06:58:32;;;;;;;16.05;13.48;;;;;;;30.42;43.77;101446.75;5007404;28;20037;-75
2023/09/09 07:00:58;;;;;;;15.07;13.48;;;;;;;30.07;44.79;101453.75;5010259;28;20022;-74
2023/09/09 07:03:23;;;;;;;15.13;13.63;;;;;;;30.39;44.27;101451.00;5010741;28;20470;-75
2023/09/09 07:05:49;;;;;;;14.63;13.15;;;;;;;29.76;45.78;101446.13;5010267;28;20467;-76
2023/09/09 07:08:14;;;;;;;15.68;14.10;;;;;;;29.68;46.54;101455.19;5011776;28;20076;-76
2023/09/09 07:10:48;;;;;;;16.08;14.57;;;;;;;30.63;43.89;101456.22;5008078;28;20036;-76
2023/09/09 07:13:15;;;;;;;16.92;15.13;;;;;;;30.82;43.17;101460.72;5011745;28;20032;-75
2023/09/09 07:15:40;;;;;;;17.05;15.35;;;;;;;30.88;43.45;101456.66;5010559;28;20371;-75
2023/09/09 07:18:06;;;;;;;16.27;14.75;;;;;;;30.67;43.94;101462.78;5011734;28;20028;-75
2023/09/09 07:20:31;;;;;;;19.27;17.38;;;;;;;29.04;47.35;101464.31;5011605;28;20477;-75
2023/09/09 07:22:57;;;;;;;18.25;16.10;;;;;;;30.14;45.72;101458.03;5013404;28;20033;-75
2023/09/09 07:25:22;;;;;;;18.73;16.85;;;;;;;30.59;43.79;101459.97;5011308;28;20037;-75
2023/09/09 07:27:47;;;;;;;18.17;16.23;;;;;;;30.05;45.80;101461.56;5016333;28;20450;-74
2023/09/09 07:30:13;;;;;;;18.98;16.98;;;;;;;30.44;45.12;101458.38;5000203;28;20425;-75
2023/09/09 07:32:38;;;;;;;18.52;16.10;;;;;;;31.26;43.60;101461.69;5010177;28;20683;-75
2023/09/09 07:35:07;;;;;;;21.20;18.45;;;;;;;31.35;42.64;101466.47;5011676;28;20069;-75
2023/09/09 07:37:33;;;;;;;24.48;22.10;;;;;;;31.99;41.58;101467.81;5008916;28;20496;-74
2023/09/09 07:39:58;;;;;;;21.15;18.98;;;;;;;32.23;41.26;101466.50;5011045;28;20030;-75
2023/09/09 07:42:24;;;;;;;21.77;19.35;;;;;;;32.37;41.57;101464.34;5010898;28;20033;-76
2023/09/09 07:44:50;;;;;;;23.17;20.88;;;;;;;31.81;41.60;101465.06;5009694;28;20054;-75
2023/09/09 07:47:16;;;;;;;23.80;21.55;;;;;;;32.09;41.23;101467.50;5011026;28;20026;-75
2023/09/09 07:49:41;;;;;;;25.00;22.50;;;;;;;32.03;41.54;101472.44;5012950;28;20045;-74
2023/09/09 07:52:06;;;;;;;23.48;21.20;;;;;;;31.85;42.24;101468.81;5006081;28;20052;-74
2023/09/09 07:54:32;;;;;;;24.83;22.35;;;;;;;32.39;40.83;101470.41;5024550;28;20502;-74
2023/09/09 07:57:01;;;;;;;22.90;20.45;;;;;;;32.73;40.25;101471.47;5028633;28;20201;-75
2023/09/09 07:59:28;;;;;;;25.77;23.17;;;;;;;31.96;42.30;101471.25;5009339;28;20053;-74
2023/09/09 08:01:53;;;;;;;26.73;23.92;;;;;;;33.25;39.97;101475.16;5009671;28;20036;-75
2023/09/09 08:04:19;;;;;;;27.10;24.23;;;;;;;33.27;39.21;101484.00;5006555;28;20377;-75
2023/09/09 08:06:49;;;;;;;26.25;23.52;;;;;;;33.16;39.96;101478.00;5015727;28;20036;-74
2023/09/09 08:09:14;;;;;;;22.20;19.92;;;;;;;33.70;39.33;101476.50;5008561;28;20022;-74
2023/09/09 08:11:40;;;;;;;26.98;24.13;;;;;;;32.98;40.46;101473.66;5000467;28;20522;-74
2023/09/09 08:14:05;;;;;;;30.95;27.63;;;;;;;30.71;45.76;101471.31;5008828;28;20026;-73
2023/09/09 08:16:30;;;;;;;25.80;23.30;;;;;;;32.72;41.66;101474.59;5010183;28;20034;-73
2023/09/09 08:18:57;;;;;;;30.45;26.80;;;;;;;33.11;40.25;101486.56;5008923;28;20111;-73
2023/09/09 08:21:22;;;;;;;32.15;27.17;;;;;;;32.14;42.91;101477.66;5009443;28;20556;-73
2023/09/09 08:23:48;;;;;;;22.60;20.35;;;;;;;32.34;43.00;101485.34;5008150;28;20026;-73
2023/09/09 08:26:13;;;;;;;28.38;25.52;;;;;;;34.25;39.03;101482.94;5009655;28;20022;-73
2023/09/09 08:28:40;;;;;;;27.48;24.73;;;;;;;34.68;37.51;101482.81;5006600;28;20462;-73
2023/09/09 08:31:05;;;;;;;31.23;27.88;;;;;;;35.36;36.49;101484.22;5005945;28;20053;-73
2023/09/09 08:33:32;;;;;;;32.00;28.88;;;;;;;33.59;39.53;101484.47;5009110;28;20042;-73
2023/09/09 08:35:58;;;;;;;30.67;27.88;;;;;;;32.41;41.49;101473.69;5009862;28;20224;-73
2023/09/09 08:38:23;;;;;;;25.05;22.50;;;;;;;34.07;40.16;101489.84;5011210;28;20490;-73
2023/09/09 08:41:00;;;;;;;26.42;23.38;;;;;;;35.15;37.09;101484.38;5003368;28;20033;-73
2023/09/09 08:43:36;;;;;;;30.25;27.40;;;;;;;33.85;39.43;101486.25;4998050;28;20029;-73
2023/09/09 08:46:14;;;;;;;29.83;26.73;;;;;;;34.39;38.24;101501.38;4996069;28;20037;-73
2023/09/09 08:48:40;;;;;;;31.90;28.77;;;;;;;33.67;39.17;101491.97;5012610;28;20112;-73
2023/09/09 08:51:06;;;;;;;32.08;28.70;;;;;;;31.56;44.50;101486.97;5012693;28;20065;-73
2023/09/09 08:53:31;;;;;;;25.45;22.77;;;;;;;33.20;41.86;101494.88;4989311;28;20058;-73
2023/09/09 08:55:57;;;;;;;25.90;23.38;;;;;;;34.99;37.84;101496.28;5000169;28;20466;-73
2023/09/09 08:58:23;;;;;;;26.95;24.05;;;;;;;34.31;39.11;101498.31;5011861;28;20038;-73
2023/09/09 09:00:48;;;;;;;29.92;26.50;;;;;;;35.30;37.18;101496.84;4993956;28;20529;-73
2023/09/09 09:03:14;;;;;;;24.67;22.08;;;;;;;36.36;35.29;101498.75;4994515;28;20034;-73
2023/09/09 09:05:39;;;;;;;24.88;22.48;;;;;;;36.82;34.54;101503.97;4976919;28;20139;-73
2023/09/09 09:08:07;;;;;;;26.27;23.83;;;;;;;37.21;33.48;101504.13;4996767;28;20026;-73
2023/09/09 09:10:40;;;;;;;29.20;26.17;;;;;;;35.91;35.62;101503.47;5013876;28;20494;-73
2023/09/09 09:13:05;;;;;;;28.42;25.58;;;;;;;36.36;35.15;101507.94;4982073;28;20021;-73
2023/09/09 09:15:31;;;;;;;25.80;23.42;;;;;;;33.77;39.71;101503.88;4998522;28;20035;-73
2023/09/09 09:17:59;;;;;;;26.20;23.48;;;;;;;35.20;37.44;101498.16;5005350;28;20478;-71
2023/09/09 09:20:25;;;;;;;27.48;24.73;;;;;;;36.57;34.85;101506.94;4982676;28;20058;-73
2023/09/09 09:22:50;;;;;;;31.05;27.80;;;;;;;35.87;35.86;101505.34;5004618;28;20517;-73
2023/09/09 09:25:20;;;;;;;24.42;21.95;;;;;;;35.15;37.52;101504.78;5012952;28;20065;-73
2023/09/09 09:27:45;;;;;;;28.38;25.45;;;;;;;36.84;34.96;101507.22;5014354;28;20021;-73
2023/09/09 09:30:11;;;;;;;27.98;25.20;;;;;;;35.70;36.65;101504.47;5003108;28;20102;-73
2023/09/09 09:32:40;;;;;;;37.33;33.53;;;;;;;33.14;41.38;101496.25;4988370;28;20482;-74
2023/09/09 09:35:06;;;;;;;31.05;28.00;;;;;;;34.39;39.32;101504.97;5009571;28;20050;-74
2023/09/09 09:37:32;;;;;;;36.15;32.55;;;;;;;34.04;39.63;101507.31;4995511;28;20438;-74
2023/09/09 09:39:57;;;;;;;35.13;31.80;;;;;;;35.34;36.59;101497.75;5009896;28;20029;-74
2023/09/09 09:42:23;;;;;;;30.65;27.65;;;;;;;35.38;37.62;101495.91;5001174;28;20074;-74
2023/09/09 09:45:02;;;;;;;37.15;33.10;;;;;;;35.91;35.64;101503.47;4996505;28;20273;-73
2023/09/09 09:47:28;;;;;;;32.92;29.83;;;;;;;34.96;38.21;101496.97;5015868;28;20142;-73
2023/09/09 09:49:53;;;;;;;30.38;27.25;;;;;;;36.08;35.95;101503.19;4976102;28;20034;-72
2023/09/09 09:52:23;;;;;;;28.20;25.50;;;;;;;36.76;34.75;101499.78;4986423;28;20022;-73
2023/09/09 09:54:50;;;;;;;34.15;30.52;;;;;;;35.85;36.07;101490.88;5009681;28;20040;-73
2023/09/09 09:57:15;;;;;;;27.48;24.70;;;;;;;36.53;35.31;101487.22;5012277;28;20037;-73
2023/09/09 09:59:41;;;;;;;27.98;25.25;;;;;;;36.33;34.38;101486.28;4995587;28;20046;-73
2023/09/09 10:02:06;;;;;;;30.77;27.50;;;;;;;35.44;36.24;101491.72;4992339;28;20476;-73
2023/09/09 10:04:41;;;;;;;23.67;21.30;;;;;;;37.49;32.99;101491.94;4979408;28;20026;-73
2023/09/09 10:07:11;;;;;;;28.23;25.40;;;;;;;37.87;32.34;101497.91;5010450;28;20029;-73
2023/09/09 10:09:55;;;;;;;27.88;24.95;;;;;;;37.82;31.49;101492.63;5010472;28;20038;-73
2023/09/09 10:12:24;;;;;;;;;;;;;;;36.24;33.12;101483.63;4994818;28;20440;-73
2023/09/09 10:14:50;;;;;;;21.05;18.95;;;;;;;37.20;31.89;101482.84;4993168;28;19963;-74
2023/09/09 10:17:15;;;;;;;27.25;24.25;;;;;;;34.74;35.62;101487.03;4988937;28;20026;-73
2023/09/09 10:19:40;;;;;;;23.25;20.98;;;;;;;35.27;34.41;101486.34;4995357;28;20033;-72
2023/09/09 10:22:06;;;;;;;25.23;22.67;;;;;;;34.60;34.72;101485.38;4968097;28;20441;-73
2023/09/09 10:24:33;;;;;;;16.88;15.05;;;;;;;34.78;34.87;101473.16;4978055;28;20044;-72
2023/09/09 10:27:02;;;;;;;24.13;21.52;;;;;;;35.18;34.60;101478.09;5012346;28;20104;-74
2023/09/09 10:29:28;;;;;;;26.88;22.73;;;;;;;35.69;33.73;101480.44;5008002;28;20037;-74
2023/09/09 10:31:53;;;;;;;16.67;15.05;;;;;;;37.25;30.82;101484.56;5000960;28;20037;-73
2023/09/09 10:34:19;;;;;;;18.77;16.95;;;;;;;37.74;29.58;101480.44;4995808;28;20447;-73
2023/09/09 10:36:44;;;;;;;16.13;14.52;;;;;;;36.63;30.67;101488.66;4987655;28;20037;-73
2023/09/09 10:39:09;;;;;;;17.52;15.82;;;;;;;37.08;30.47;101480.13;5008413;28;20444;-73
2023/09/09 10:41:35;;;;;;;17.65;15.93;;;;;;;36.17;31.79;101475.03;4975134;28;20026;-73
2023/09/09 10:44:03;;;;;;;20.08;18.00;;;;;;;33.91;34.63;101473.72;4988797;28;21813;-74
2023/09/09 10:46:33;;;;;;;19.92;17.77;;;;;;;36.00;30.93;101472.53;5006086;28;20042;-74
2023/09/09 10:49:01;;;;;;;19.20;17.20;;;;;;;35.21;31.79;101478.19;4992990;28;20022;-74
2023/09/09 10:51:27;;;;;;;22.85;20.55;;;;;;;35.14;34.23;101472.34;5005344;28;20401;-74
2023/09/09 10:54:06;;;;;;;23.98;21.55;;;;;;;35.33;34.94;101474.56;5008833;28;20160;-74
2023/09/09 10:56:32;;;;;;;25.45;23.02;;;;;;;35.96;33.75;101478.06;5008362;28;20034;-74
2023/09/09 10:58:57;;;;;;;21.88;19.45;;;;;;;35.95;33.23;101473.63;4970824;28;20458;-74
2023/09/09 11:01:23;;;;;;;21.17;18.65;;;;;;;36.18;32.26;101478.66;4990753;28;20026;-73